createdAt,value
2018-09-28T00:00:25.582Z,11.30
2018-09-28T00:02:53.956Z,11.40
2018-09-28T00:05:22.132Z,11.70
2018-09-28T00:07:50.310Z,11.40
2018-09-28T00:10:18.473Z,11.70
2018-09-28T00:12:46.637Z,11.10
2018-09-28T00:15:14.851Z,11.30
2018-09-28T00:17:43.020Z,11.60
2018-09-28T00:20:11.201Z,11.30
2018-09-28T00:22:39.392Z,10.90
2018-09-28T00:25:07.637Z,10.80
2018-09-28T00:27:35.846Z,11.40
2018-09-28T00:30:04.079Z,11.40
2018-09-28T00:32:32.255Z,11.40
2018-09-28T00:35:00.424Z,11.40
2018-09-28T00:37:28.590Z,11.40
2018-09-28T00:39:56.793Z,10.40
2018-09-28T00:42:24.976Z,9.70
2018-09-28T00:44:53.149Z,9.30
2018-09-28T00:47:21.334Z,9.40
2018-09-28T00:49:49.517Z,9.50
2018-09-28T00:52:17.695Z,10.00
2018-09-28T00:54:45.889Z,10.00
2018-09-28T00:57:14.093Z,9.50
2018-09-28T00:59:42.295Z,10.00
2018-09-28T01:02:10.457Z,10.10
2018-09-28T01:04:38.637Z,9.40
2018-09-28T01:07:06.833Z,10.00
2018-09-28T01:09:35.001Z,9.30
2018-09-28T01:12:03.176Z,9.10
2018-09-28T01:14:31.346Z,8.90
2018-09-28T01:16:59.509Z,8.90
2018-09-28T01:19:27.683Z,9.10
2018-09-28T01:21:55.848Z,9.20
2018-09-28T01:24:24.022Z,9.40
2018-09-28T01:26:52.172Z,9.40
2018-09-28T01:29:20.378Z,10.10
2018-09-28T01:31:48.543Z,10.80
2018-09-28T01:34:16.728Z,10.70
2018-09-28T01:36:44.919Z,10.10
2018-09-28T01:39:13.131Z,10.20
2018-09-28T01:41:41.307Z,9.70
2018-09-28T01:44:09.468Z,10.20
2018-09-28T01:46:37.625Z,10.60
2018-09-28T01:49:05.813Z,10.60
2018-09-28T01:51:33.960Z,10.70
2018-09-28T01:54:02.223Z,10.50
2018-09-28T01:56:30.358Z,10.50
2018-09-28T01:58:58.533Z,10.50
2018-09-28T02:01:26.709Z,9.60
2018-09-28T02:03:54.928Z,9.90
2018-09-28T02:06:23.109Z,10.50
2018-09-28T02:08:51.290Z,10.90
2018-09-28T02:11:19.477Z,11.00
2018-09-28T02:13:47.646Z,10.90
2018-09-28T02:16:15.834Z,10.10
2018-09-28T02:18:44.019Z,9.20
2018-09-28T02:21:12.177Z,9.30
2018-09-28T02:23:40.387Z,9.80
2018-09-28T02:26:13.872Z,10.30
2018-09-28T02:28:42.054Z,10.40
2018-09-28T02:31:10.222Z,10.40
2018-09-28T02:33:38.402Z,9.80
2018-09-28T02:36:06.573Z,9.80
2018-09-28T02:38:34.740Z,10.00
2018-09-28T02:41:02.907Z,9.80
2018-09-28T02:43:31.117Z,9.70
2018-09-28T02:45:59.308Z,9.30
2018-09-28T02:48:27.516Z,10.10
2018-09-28T02:50:55.690Z,9.40
2018-09-28T02:53:23.899Z,9.90
2018-09-28T02:55:52.132Z,10.30
2018-09-28T02:58:20.317Z,10.30
2018-09-28T03:00:48.531Z,10.60
2018-09-28T03:03:16.882Z,9.30
2018-09-28T03:05:45.053Z,8.60
2018-09-28T03:08:13.229Z,8.90
2018-09-28T03:10:41.468Z,9.40
2018-09-28T03:13:09.653Z,10.10
2018-09-28T03:15:37.861Z,10.50
2018-09-28T03:18:06.381Z,10.20
2018-09-28T03:20:34.566Z,10.20
2018-09-28T03:23:02.749Z,9.80
2018-09-28T03:25:30.950Z,8.70
2018-09-28T03:27:59.143Z,9.00
2018-09-28T03:30:27.359Z,9.80
2018-09-28T03:32:55.564Z,10.00
2018-09-28T03:35:23.760Z,10.10
2018-09-28T03:37:51.923Z,9.80
2018-09-28T03:40:20.080Z,9.80
2018-09-28T03:42:48.294Z,9.90
2018-09-28T03:45:16.529Z,9.60
2018-09-28T03:47:47.086Z,9.70
2018-09-28T03:50:15.275Z,9.80
2018-09-28T03:52:43.453Z,9.90
2018-09-28T03:55:12.122Z,10.20
2018-09-28T03:57:40.302Z,10.10
2018-09-28T04:00:09.396Z,10.50
2018-09-28T04:02:37.974Z,10.30
2018-09-28T04:05:06.221Z,9.40
2018-09-28T04:07:34.540Z,9.80
2018-09-28T04:10:02.735Z,9.90
2018-09-28T04:12:30.915Z,9.00
2018-09-28T04:14:59.163Z,8.10
2018-09-28T04:17:27.322Z,7.70
2018-09-28T04:19:55.510Z,7.40
2018-09-28T04:22:23.715Z,7.50
2018-09-28T04:24:51.891Z,8.50
2018-09-28T04:27:20.066Z,8.60
2018-09-28T04:29:48.286Z,7.80
2018-09-28T04:32:16.470Z,7.80
2018-09-28T04:34:51.345Z,7.50
2018-09-28T04:37:19.569Z,7.10
2018-09-28T04:39:47.756Z,7.20
2018-09-28T04:42:15.929Z,7.00
2018-09-28T04:44:44.114Z,7.10
2018-09-28T04:47:12.281Z,7.70
2018-09-28T04:49:40.486Z,8.40
2018-09-28T04:52:08.681Z,9.00
2018-09-28T04:54:36.896Z,9.70
2018-09-28T04:57:05.056Z,9.20
2018-09-28T04:59:33.265Z,9.30
2018-09-28T05:02:01.421Z,9.20
2018-09-28T05:04:29.612Z,8.90
2018-09-28T05:06:57.768Z,8.10
2018-09-28T05:09:25.953Z,8.70
2018-09-28T05:11:54.155Z,8.90
2018-09-28T05:14:22.349Z,9.20
2018-09-28T05:16:50.545Z,9.50
2018-09-28T05:19:18.808Z,9.40
2018-09-28T05:21:46.941Z,8.40
2018-09-28T05:24:15.157Z,7.70
2018-09-28T05:26:43.343Z,7.50
2018-09-28T05:29:11.550Z,8.80
2018-09-28T05:31:39.754Z,9.20
2018-09-28T05:34:07.916Z,9.80
2018-09-28T05:36:36.113Z,9.70
2018-09-28T05:39:06.785Z,8.70
2018-09-28T05:41:34.994Z,8.80
2018-09-28T05:44:03.226Z,9.40
2018-09-28T05:46:31.402Z,9.60
2018-09-28T05:48:59.598Z,8.80
2018-09-28T05:51:27.786Z,8.20
2018-09-28T05:53:55.992Z,8.40
2018-09-28T05:56:24.220Z,9.00
2018-09-28T05:58:57.730Z,8.30
2018-09-28T06:01:31.323Z,8.50
2018-09-28T06:04:04.994Z,8.20
2018-09-28T06:06:33.176Z,8.50
2018-09-28T06:09:01.394Z,8.40
2018-09-28T06:11:29.572Z,8.40
2018-09-28T06:13:58.437Z,9.30
2018-09-28T06:16:26.608Z,9.10
2018-09-28T06:18:54.885Z,9.50
2018-09-28T06:21:23.134Z,9.70
2018-09-28T06:23:51.308Z,9.50
2018-09-28T06:26:19.534Z,9.90
2018-09-28T06:28:47.713Z,10.00
2018-09-28T06:31:15.917Z,11.70
2018-09-28T06:33:44.354Z,12.80
2018-09-28T06:36:12.668Z,13.40
2018-09-28T06:38:40.874Z,13.90
2018-09-28T06:41:09.069Z,14.20
2018-09-28T06:43:37.257Z,14.60
2018-09-28T06:46:05.461Z,14.70
2018-09-28T06:48:33.656Z,15.20
2018-09-28T06:51:01.857Z,15.50
2018-09-28T06:53:30.038Z,15.60
2018-09-28T06:55:58.235Z,15.90
2018-09-28T06:58:26.426Z,15.80
2018-09-28T07:00:54.622Z,16.00
2018-09-28T07:03:22.819Z,15.90
2018-09-28T07:05:51.117Z,16.00
2018-09-28T07:08:19.263Z,14.80
2018-09-28T07:10:47.446Z,13.90
2018-09-28T07:13:15.631Z,15.10
2018-09-28T07:15:43.831Z,15.20
2018-09-28T07:18:12.054Z,16.30
2018-09-28T07:20:40.229Z,16.80
2018-09-28T07:23:08.410Z,17.30
2018-09-28T07:25:36.633Z,17.90
2018-09-28T07:28:04.864Z,16.80
2018-09-28T07:30:33.059Z,17.30
2018-09-28T07:33:01.254Z,17.70
2018-09-28T07:35:29.461Z,17.80
2018-09-28T07:37:57.678Z,17.10
2018-09-28T07:40:25.904Z,17.40
2018-09-28T07:42:54.085Z,17.70
2018-09-28T07:45:22.279Z,18.10
2018-09-28T07:47:50.515Z,17.80
2018-09-28T07:50:18.663Z,18.10
2018-09-28T07:52:46.890Z,17.40
2018-09-28T07:55:15.141Z,17.60
2018-09-28T07:57:43.362Z,17.80
2018-09-28T08:00:11.555Z,18.30
2018-09-28T08:02:39.756Z,18.70
2018-09-28T08:05:07.966Z,18.90
2018-09-28T08:07:36.367Z,19.10
2018-09-28T08:10:05.093Z,19.30
2018-09-28T08:12:33.337Z,18.50
2018-09-28T08:15:01.636Z,18.90
2018-09-28T08:17:29.876Z,18.80
2018-09-28T08:19:58.218Z,18.90
2018-09-28T08:22:26.422Z,19.20
2018-09-28T08:24:54.653Z,19.00
2018-09-28T08:27:22.858Z,18.80
2018-09-28T08:29:51.183Z,18.70
2018-09-28T08:32:19.439Z,18.30
2018-09-28T08:34:47.685Z,18.50
2018-09-28T08:37:15.912Z,18.80
2018-09-28T08:39:44.110Z,19.00
2018-09-28T08:42:12.303Z,19.20
2018-09-28T08:44:40.580Z,19.60
2018-09-28T08:47:09.623Z,19.20
2018-09-28T08:49:37.823Z,20.20
2018-09-28T08:52:06.127Z,20.90
2018-09-28T08:54:34.397Z,18.60
2018-09-28T08:57:02.610Z,18.90
2018-09-28T08:59:30.804Z,19.70
2018-09-28T09:01:59.048Z,20.40
2018-09-28T09:04:27.280Z,20.30
2018-09-28T09:06:55.490Z,20.20
2018-09-28T09:09:23.836Z,20.10
2018-09-28T09:11:52.262Z,20.20
2018-09-28T09:14:20.445Z,20.30
2018-09-28T09:16:48.749Z,20.30
2018-09-28T09:19:17.022Z,19.90
2018-09-28T09:21:45.241Z,20.50
2018-09-28T09:24:13.653Z,20.30
2018-09-28T09:26:41.861Z,20.60
2018-09-28T09:29:10.040Z,21.20
2018-09-28T09:31:38.235Z,20.50
2018-09-28T09:34:06.465Z,21.70
2018-09-28T09:36:34.750Z,20.70
2018-09-28T09:39:03.694Z,20.90
2018-09-28T09:41:31.910Z,22.30
2018-09-28T09:44:00.153Z,21.30
2018-09-28T09:46:28.358Z,20.80
2018-09-28T09:48:56.566Z,21.60
2018-09-28T09:51:24.803Z,21.90
2018-09-28T09:53:52.993Z,21.50
2018-09-28T09:56:21.570Z,21.90
2018-09-28T09:58:49.772Z,21.70
2018-09-28T10:01:23.257Z,21.50
2018-09-28T10:03:51.778Z,21.50
2018-09-28T10:06:20.081Z,21.00
2018-09-28T10:08:48.316Z,21.00
2018-09-28T10:11:16.525Z,21.10
2018-09-28T10:13:44.794Z,22.80
2018-09-28T10:16:13.074Z,24.20
2018-09-28T10:18:41.262Z,25.30
2018-09-28T10:21:09.492Z,25.20
2018-09-28T10:23:37.668Z,23.10
2018-09-28T10:26:05.958Z,22.10
2018-09-28T10:28:34.198Z,21.90
2018-09-28T10:31:02.337Z,22.10
2018-09-28T10:33:30.550Z,22.80
2018-09-28T10:35:58.747Z,22.90
2018-09-28T10:38:26.943Z,23.10
2018-09-28T10:40:55.283Z,22.70
2018-09-28T10:43:23.374Z,21.70
2018-09-28T10:45:51.653Z,23.00
2018-09-28T10:48:19.834Z,23.40
2018-09-28T10:50:48.235Z,25.00
2018-09-28T10:53:16.437Z,25.10
2018-09-28T10:55:44.643Z,25.10
2018-09-28T10:58:19.612Z,24.10
2018-09-28T11:00:47.756Z,24.40
2018-09-28T11:03:16.033Z,25.60
2018-09-28T11:05:44.301Z,26.10
2018-09-28T11:08:12.510Z,25.20
2018-09-28T11:10:40.720Z,24.50
2018-09-28T11:13:08.947Z,25.60
2018-09-28T11:15:37.590Z,25.40
2018-09-28T11:18:05.869Z,28.00
2018-09-28T11:20:34.083Z,30.00
2018-09-28T11:23:02.294Z,30.90
2018-09-28T11:25:30.517Z,30.80
2018-09-28T11:27:58.753Z,30.30
2018-09-28T11:30:26.938Z,29.90
2018-09-28T11:32:55.138Z,27.20
2018-09-28T11:35:23.320Z,27.80
2018-09-28T11:37:51.599Z,26.40
2018-09-28T11:40:19.744Z,26.00
2018-09-28T11:42:47.942Z,26.60
2018-09-28T11:45:16.142Z,25.00
2018-09-28T11:47:44.341Z,24.10
2018-09-28T11:50:12.531Z,24.10
2018-09-28T11:52:40.738Z,24.30
2018-09-28T11:55:08.990Z,25.50
2018-09-28T11:57:37.232Z,26.90
2018-09-28T12:00:05.531Z,26.20
2018-09-28T12:02:33.708Z,26.70
2018-09-28T12:05:01.940Z,28.50
2018-09-28T12:07:30.377Z,26.50
2018-09-28T12:09:58.786Z,26.00
2018-09-28T12:12:27.076Z,27.80
2018-09-28T12:14:55.305Z,28.30
2018-09-28T12:17:23.703Z,26.30
2018-09-28T12:19:51.920Z,27.00
2018-09-28T12:22:20.126Z,28.40
2018-09-28T12:24:48.426Z,26.40
2018-09-28T12:27:16.581Z,24.90
2018-09-28T12:29:44.790Z,23.90
2018-09-28T12:32:13.161Z,24.30
2018-09-28T12:34:41.437Z,24.10
2018-09-28T12:37:09.653Z,24.60
2018-09-28T12:39:37.986Z,25.70
2018-09-28T12:42:07.161Z,26.10
2018-09-28T12:44:35.430Z,25.20
2018-09-28T12:47:03.585Z,24.60
2018-09-28T12:49:31.800Z,26.20
2018-09-28T12:52:00.027Z,25.80
2018-09-28T12:54:28.265Z,24.30
2018-09-28T12:56:56.418Z,24.00
2018-09-28T12:59:24.593Z,23.90
2018-09-28T13:01:52.811Z,23.60
2018-09-28T13:04:20.974Z,23.70
2018-09-28T13:06:50.207Z,23.30
2018-09-28T13:09:18.346Z,23.20
2018-09-28T13:11:46.800Z,22.90
2018-09-28T13:14:15.146Z,23.20
2018-09-28T13:16:43.278Z,23.00
2018-09-28T13:19:12.170Z,23.00
2018-09-28T13:21:40.500Z,22.60
2018-09-28T13:24:08.735Z,23.00
2018-09-28T13:26:36.898Z,23.70
2018-09-28T13:29:05.181Z,23.50
2018-09-28T13:31:33.379Z,22.80
2018-09-28T13:34:01.607Z,22.80
2018-09-28T13:36:29.847Z,22.60
2018-09-28T13:38:58.025Z,22.40
2018-09-28T13:41:26.245Z,22.60
2018-09-28T13:43:54.561Z,22.90
2018-09-28T13:46:22.773Z,23.20
2018-09-28T13:48:51.055Z,22.50
2018-09-28T13:51:19.182Z,22.30
2018-09-28T13:53:47.495Z,22.30
2018-09-28T13:56:15.542Z,21.80
2018-09-28T13:58:43.745Z,21.70
2018-09-28T14:01:11.882Z,21.60
2018-09-28T14:03:40.103Z,22.80
2018-09-28T14:06:08.315Z,22.90
2018-09-28T14:08:36.550Z,22.80
2018-09-28T14:11:04.718Z,22.30
2018-09-28T14:13:33.500Z,22.10
2018-09-28T14:16:01.739Z,22.00
2018-09-28T14:18:29.948Z,22.10
2018-09-28T14:20:58.163Z,22.40
2018-09-28T14:23:26.381Z,22.70
2018-09-28T14:25:54.553Z,22.40
2018-09-28T14:28:22.788Z,22.60
2018-09-28T14:30:51.108Z,22.60
2018-09-28T14:33:19.149Z,21.90
2018-09-28T14:35:47.358Z,21.70
2018-09-28T14:38:15.604Z,21.70
2018-09-28T14:40:43.887Z,21.90
2018-09-28T14:43:12.030Z,21.70
2018-09-28T14:45:40.197Z,21.30
2018-09-28T14:48:08.457Z,21.20
2018-09-28T14:50:36.684Z,21.30
2018-09-28T14:53:04.812Z,21.70
2018-09-28T14:55:33.119Z,20.90
2018-09-28T14:58:01.306Z,20.70
2018-09-28T15:00:29.560Z,20.20
2018-09-28T15:02:57.874Z,20.70
2018-09-28T15:05:26.055Z,20.60
2018-09-28T15:07:54.298Z,20.70
2018-09-28T15:10:22.500Z,20.60
2018-09-28T15:12:50.675Z,20.30
2018-09-28T15:15:18.877Z,20.50
2018-09-28T15:17:47.106Z,20.10
2018-09-28T15:20:15.322Z,20.00
2018-09-28T15:22:43.563Z,19.70
2018-09-28T15:25:11.734Z,19.60
2018-09-28T15:27:39.939Z,20.00
2018-09-28T15:30:08.580Z,19.70
2018-09-28T15:32:36.922Z,19.70
2018-09-28T15:35:05.299Z,19.40
2018-09-28T15:37:33.471Z,19.60
2018-09-28T15:40:01.679Z,19.10
2018-09-28T15:42:29.988Z,18.60
2018-09-28T15:44:58.216Z,18.20
2018-09-28T15:47:26.393Z,18.00
2018-09-28T15:49:54.578Z,17.60
2018-09-28T15:52:22.841Z,17.60
2018-09-28T15:54:51.055Z,17.50
2018-09-28T15:57:19.262Z,17.30
2018-09-28T15:59:47.447Z,17.20
2018-09-28T16:02:15.614Z,16.70
2018-09-28T16:04:43.809Z,16.80
2018-09-28T16:07:11.980Z,16.50
2018-09-28T16:09:40.173Z,16.40
2018-09-28T16:12:08.491Z,16.40
2018-09-28T16:14:36.633Z,16.70
2018-09-28T16:17:04.850Z,16.50
2018-09-28T16:19:33.054Z,16.50
2018-09-28T16:22:01.271Z,16.50
2018-09-28T16:24:29.458Z,16.30
2018-09-28T16:26:57.734Z,16.10
2018-09-28T16:29:26.017Z,16.40
2018-09-28T16:31:54.209Z,16.50
2018-09-28T16:34:22.548Z,16.40
2018-09-28T16:36:51.138Z,16.10
2018-09-28T16:39:19.318Z,15.60
2018-09-28T16:41:47.530Z,15.80
2018-09-28T16:44:15.750Z,15.70
2018-09-28T16:46:43.940Z,15.40
2018-09-28T16:49:12.152Z,15.20
2018-09-28T16:51:40.373Z,15.00
2018-09-28T16:54:08.665Z,15.10
2018-09-28T16:56:36.874Z,15.30
2018-09-28T16:59:05.082Z,15.10
2018-09-28T17:01:33.291Z,15.00
2018-09-28T17:04:01.551Z,15.00
2018-09-28T17:06:29.857Z,15.00
2018-09-28T17:08:58.058Z,14.40
2018-09-28T17:11:26.294Z,14.50
2018-09-28T17:13:54.510Z,14.50
2018-09-28T17:16:22.706Z,14.40
2018-09-28T17:18:50.909Z,14.70
2018-09-28T17:21:19.106Z,14.40
2018-09-28T17:23:47.394Z,14.60
2018-09-28T17:26:15.602Z,14.70
2018-09-28T17:28:43.861Z,14.60
2018-09-28T17:31:12.004Z,14.70
2018-09-28T17:33:40.190Z,14.40
2018-09-28T17:36:08.446Z,14.30
2018-09-28T17:38:36.671Z,14.20
2018-09-28T17:41:04.864Z,13.80
2018-09-28T17:43:33.123Z,13.90
2018-09-28T17:46:01.322Z,13.60
2018-09-28T17:48:29.497Z,13.50
2018-09-28T17:50:57.711Z,13.40
2018-09-28T17:53:25.895Z,12.90
2018-09-28T17:55:54.126Z,13.20
2018-09-28T17:58:22.358Z,13.10
2018-09-28T18:00:50.618Z,13.00
2018-09-28T18:03:18.847Z,13.00
2018-09-28T18:05:47.198Z,12.90
2018-09-28T18:08:15.338Z,12.90
2018-09-28T18:10:43.537Z,12.80
2018-09-28T18:13:11.724Z,13.00
2018-09-28T18:15:39.921Z,12.70
2018-09-28T18:18:08.094Z,13.10
2018-09-28T18:20:36.315Z,12.40
2018-09-28T18:23:04.544Z,12.60
2018-09-28T18:25:32.846Z,12.60
2018-09-28T18:28:01.021Z,12.70
2018-09-28T18:30:29.233Z,12.70
2018-09-28T18:32:57.442Z,13.00
2018-09-28T18:35:25.828Z,13.30
2018-09-28T18:37:54.004Z,13.30
2018-09-28T18:40:22.180Z,13.00
2018-09-28T18:42:50.362Z,12.90
2018-09-28T18:45:18.796Z,12.80
2018-09-28T18:47:46.997Z,13.20
2018-09-28T18:50:15.278Z,13.20
2018-09-28T18:52:43.487Z,13.00
2018-09-28T18:55:11.722Z,13.10
2018-09-28T18:57:39.946Z,13.20
2018-09-28T19:00:08.112Z,13.30
2018-09-28T19:02:36.303Z,13.30
2018-09-28T19:05:04.486Z,13.20
2018-09-28T19:07:32.742Z,13.20
2018-09-28T19:10:00.922Z,13.30
2018-09-28T19:12:29.148Z,13.20
2018-09-28T19:14:57.317Z,13.30
2018-09-28T19:17:25.653Z,13.40
2018-09-28T19:19:53.825Z,13.30
2018-09-28T19:22:22.077Z,13.30
2018-09-28T19:24:50.237Z,13.00
2018-09-28T19:27:18.429Z,12.70
2018-09-28T19:29:46.766Z,12.70
2018-09-28T19:32:14.949Z,12.90
2018-09-28T19:34:43.211Z,13.10
2018-09-28T19:37:11.409Z,13.20
2018-09-28T19:39:39.726Z,13.20
2018-09-28T19:42:08.076Z,13.10
2018-09-28T19:44:36.255Z,13.00
2018-09-28T19:47:04.436Z,12.90
2018-09-28T19:49:32.650Z,12.90
2018-09-28T19:52:00.993Z,12.90
2018-09-28T19:54:29.206Z,13.10
2018-09-28T19:56:57.396Z,13.00
2018-09-28T19:59:25.567Z,13.10
2018-09-28T20:01:53.777Z,13.20
2018-09-28T20:04:21.954Z,13.10
2018-09-28T20:06:50.160Z,12.90
2018-09-28T20:09:18.341Z,13.00
2018-09-28T20:11:46.554Z,13.00
2018-09-28T20:14:14.726Z,13.10
2018-09-28T20:16:43.031Z,13.00
2018-09-28T20:19:11.225Z,13.00
2018-09-28T20:21:39.442Z,13.20
2018-09-28T20:24:07.745Z,13.30
2018-09-28T20:26:35.916Z,13.00
2018-09-28T20:29:04.192Z,12.90
2018-09-28T20:31:32.477Z,12.90
2018-09-28T20:34:00.725Z,12.80
2018-09-28T20:36:28.918Z,13.00
2018-09-28T20:38:57.166Z,12.90
2018-09-28T20:41:25.346Z,12.60
2018-09-28T20:43:53.691Z,12.70
2018-09-28T20:46:21.862Z,12.80
2018-09-28T20:48:50.106Z,13.00
2018-09-28T20:51:18.270Z,12.90
2018-09-28T20:53:46.500Z,13.00
2018-09-28T20:56:14.688Z,12.90
2018-09-28T20:58:42.881Z,13.10
2018-09-28T21:01:11.070Z,13.00
2018-09-28T21:03:39.260Z,12.90
2018-09-28T21:06:07.486Z,12.90
2018-09-28T21:08:35.810Z,12.80
2018-09-28T21:11:04.009Z,12.90
2018-09-28T21:13:32.260Z,12.80
2018-09-28T21:16:00.523Z,12.80
2018-09-28T21:18:28.865Z,12.50
2018-09-28T21:20:57.140Z,12.50
2018-09-28T21:23:25.406Z,12.60
2018-09-28T21:25:53.591Z,12.70
2018-09-28T21:28:21.785Z,12.50
2018-09-28T21:30:50.058Z,12.30
2018-09-28T21:33:18.250Z,12.40
2018-09-28T21:35:46.450Z,12.50
2018-09-28T21:38:14.703Z,12.40
2018-09-28T21:40:42.893Z,12.50
2018-09-28T21:43:11.114Z,12.30
2018-09-28T21:45:39.338Z,12.30
2018-09-28T21:48:07.509Z,12.20
2018-09-28T21:50:35.772Z,12.30
2018-09-28T21:53:04.025Z,12.30
2018-09-28T21:55:32.198Z,12.20
2018-09-28T21:58:00.473Z,11.90
2018-09-28T22:00:28.710Z,11.80
2018-09-28T22:02:57.370Z,11.80
2018-09-28T22:05:25.619Z,11.60
2018-09-28T22:07:53.841Z,11.70
2018-09-28T22:10:22.018Z,11.60
2018-09-28T22:12:50.208Z,11.40
2018-09-28T22:15:18.442Z,11.40
2018-09-28T22:17:46.641Z,11.40
2018-09-28T22:20:14.842Z,11.50
2018-09-28T22:22:43.050Z,11.60
2018-09-28T22:25:11.295Z,11.50
2018-09-28T22:27:39.534Z,11.50
2018-09-28T22:30:07.717Z,11.30
2018-09-28T22:32:35.918Z,11.30
2018-09-28T22:35:04.101Z,11.30
2018-09-28T22:37:32.288Z,11.40
2018-09-28T22:40:00.487Z,11.20
2018-09-28T22:42:28.694Z,11.20
2018-09-28T22:44:56.893Z,11.00
2018-09-28T22:47:25.086Z,10.90
2018-09-28T22:49:53.294Z,10.80
2018-09-28T22:52:21.486Z,10.70
2018-09-28T22:54:49.744Z,10.60
2018-09-28T22:57:17.978Z,10.70
2018-09-28T22:59:46.178Z,10.60
2018-09-28T23:02:14.377Z,10.50
2018-09-28T23:04:42.588Z,10.50
2018-09-28T23:07:10.782Z,10.40
2018-09-28T23:09:38.982Z,10.50
2018-09-28T23:12:07.197Z,10.60
2018-09-28T23:14:35.393Z,10.50
2018-09-28T23:17:03.565Z,10.60
2018-09-28T23:19:31.772Z,10.60
2018-09-28T23:21:59.944Z,10.50
2018-09-28T23:24:29.014Z,10.40
2018-09-28T23:26:57.197Z,10.30
2018-09-28T23:29:25.369Z,10.20
2018-09-28T23:31:53.528Z,10.20
2018-09-28T23:34:21.718Z,10.10
2018-09-28T23:36:49.905Z,10.20
2018-09-28T23:39:18.079Z,10.10
2018-09-28T23:41:46.272Z,10.00
2018-09-28T23:44:14.436Z,10.00
2018-09-28T23:46:42.630Z,9.80
2018-09-28T23:49:10.836Z,10.00
2018-09-28T23:51:39.014Z,9.90
2018-09-28T23:54:07.185Z,9.90
2018-09-28T23:56:35.380Z,9.80
2018-09-28T23:59:03.557Z,9.90
